Time;durP1;ratioP1;P1;durP2;ratioP2;P2;SDS_P1;SDS_P2;PMS_P1;PMS_P2;Temp;Humidity;BMP_temperature;BMP_pressure;BME280_temperature;BME280_humidity;BME280_pressure;Samples;Min_cycle;Max_cycle;Signal;HPM_P1;HPM_P2
2022/01/01 00:00:20;;;;;;;34.28;13.38;;;11.30;99.90;;;;;;5040289;28;20139;-71
2022/01/01 00:02:45;;;;;;;35.45;14.82;;;11.30;99.90;;;;;;5024105;28;20124;-72
2022/01/01 00:05:13;;;;;;;42.40;15.20;;;11.30;99.90;;;;;;5040206;28;20113;-72
2022/01/01 00:07:46;;;;;;;38.28;15.30;;;11.30;99.90;;;;;;5040583;28;20059;-71
2022/01/01 00:10:12;;;;;;;38.78;16.73;;;11.20;99.90;;;;;;5037369;28;20057;-71
2022/01/01 00:12:41;;;;;;;41.10;16.50;;;11.30;99.90;;;;;;5037446;28;20095;-72
2022/01/01 00:15:09;;;;;;;39.08;17.85;;;11.20;99.90;;;;;;5037583;28;20044;-70
2022/01/01 00:17:35;;;;;;;45.00;18.20;;;11.30;99.90;;;;;;5020953;28;20456;-72
2022/01/01 00:20:00;;;;;;;43.38;18.90;;;11.20;99.90;;;;;;5035315;28;20053;-73
2022/01/01 00:22:26;;;;;;;40.30;18.52;;;11.20;99.90;;;;;;5033430;28;20045;-71
2022/01/01 00:24:51;;;;;;;36.92;17.20;;;11.30;99.90;;;;;;5018559;28;20049;-71
2022/01/01 00:27:17;;;;;;;43.40;17.58;;;11.20;99.90;;;;;;5030529;28;20051;-70
2022/01/01 00:29:42;;;;;;;40.00;16.52;;;11.20;99.90;;;;;;5020947;28;20060;-72
2022/01/01 00:32:08;;;;;;;47.85;17.70;;;11.20;99.90;;;;;;5036034;28;20451;-71
2022/01/01 00:34:35;;;;;;;41.22;18.38;;;11.20;99.90;;;;;;5036279;28;20056;-72
2022/01/01 00:37:00;;;;;;;43.50;20.08;;;11.20;99.90;;;;;;5036690;28;20056;-71
2022/01/01 00:39:27;;;;;;;44.95;21.13;;;11.20;99.90;;;;;;5036963;28;20057;-71
2022/01/01 00:41:53;;;;;;;44.60;20.73;;;11.20;99.90;;;;;;5035321;28;20052;-72
2022/01/01 00:44:18;;;;;;;51.08;24.02;;;11.20;99.90;;;;;;5037134;28;20434;-72
2022/01/01 00:46:45;;;;;;;49.03;26.55;;;11.20;99.90;;;;;;5026311;28;20053;-70
2022/01/01 00:49:11;;;;;;;56.08;26.35;;;11.20;99.90;;;;;;5019018;28;20037;-71
2022/01/01 00:51:40;;;;;;;54.17;27.30;;;11.20;99.90;;;;;;5024103;28;20053;-71
2022/01/01 00:54:05;;;;;;;58.58;29.10;;;11.20;99.90;;;;;;5057272;28;20052;-71
2022/01/01 00:56:31;;;;;;;59.60;30.95;;;11.20;99.90;;;;;;5041815;28;20061;-69
2022/01/01 00:58:57;;;;;;;58.13;31.02;;;11.20;99.90;;;;;;5016989;28;20049;-70
2022/01/01 01:01:22;;;;;;;62.53;34.00;;;11.20;99.90;;;;;;5021707;28;20072;-72
2022/01/01 01:03:50;;;;;;;57.20;33.95;;;11.10;99.90;;;;;;5036926;28;20053;-70
2022/01/01 01:06:16;;;;;;;63.30;35.35;;;11.10;99.90;;;;;;5017696;28;20452;-72
2022/01/01 01:08:42;;;;;;;68.15;34.95;;;11.10;99.90;;;;;;5021088;28;20049;-72
2022/01/01 01:11:08;;;;;;;60.45;36.15;;;11.10;99.90;;;;;;5035534;28;20102;-71
2022/01/01 01:13:35;;;;;;;58.72;34.78;;;11.10;99.90;;;;;;5035359;28;20056;-70
2022/01/01 01:16:01;;;;;;;62.78;37.35;;;11.10;99.90;;;;;;5034795;28;20107;-70
2022/01/01 01:18:27;;;;;;;65.32;36.67;;;11.00;99.90;;;;;;5051973;28;20057;-71
2022/01/01 01:20:53;;;;;;;65.72;36.75;;;11.00;99.90;;;;;;5033776;28;20040;-70
2022/01/01 01:23:18;;;;;;;66.88;36.80;;;11.00;99.90;;;;;;5034331;28;20052;-72
2022/01/01 01:25:47;;;;;;;69.10;40.17;;;11.00;99.90;;;;;;5023795;28;20049;-71
2022/01/01 01:28:14;;;;;;;74.60;40.45;;;10.90;99.90;;;;;;5032541;28;20492;-71
2022/01/01 01:30:40;;;;;;;67.00;40.88;;;10.90;99.90;;;;;;5052435;28;20049;-69
2022/01/01 01:33:10;;;;;;;80.57;44.33;;;10.80;99.90;;;;;;5040092;28;20490;-70
2022/01/01 01:35:36;;;;;;;75.35;45.08;;;10.80;99.90;;;;;;5032287;28;20117;-71
2022/01/01 01:38:02;;;;;;;79.97;46.08;;;10.80;99.90;;;;;;5035879;28;20119;-73
2022/01/01 01:40:28;;;;;;;80.60;45.78;;;10.80;99.90;;;;;;5014519;28;20052;-70
2022/01/01 01:42:54;;;;;;;81.20;44.15;;;10.70;99.90;;;;;;5006394;28;20111;-72
2022/01/01 01:45:21;;;;;;;74.43;42.47;;;10.80;99.90;;;;;;5016275;28;20054;-71
2022/01/01 01:47:49;;;;;;;73.07;41.65;;;10.80;99.90;;;;;;5027128;28;20496;-70
2022/01/01 01:50:17;;;;;;;64.03;37.78;;;10.80;99.90;;;;;;5029860;28;20379;-70
2022/01/01 01:52:47;;;;;;;72.72;37.92;;;10.80;99.90;;;;;;5019544;28;20057;-71
2022/01/01 01:55:12;;;;;;;74.55;36.03;;;10.70;99.90;;;;;;5034491;28;20052;-70
2022/01/01 01:57:40;;;;;;;72.25;35.70;;;10.70;99.90;;;;;;5049935;28;20057;-71
2022/01/01 02:00:32;;;;;;;62.63;34.70;;;10.70;99.90;;;;;;5035022;28;20060;-70
2022/01/01 02:02:57;;;;;;;67.83;33.53;;;10.60;99.90;;;;;;5018158;28;20068;-71
2022/01/01 02:05:23;;;;;;;70.45;33.72;;;10.60;99.90;;;;;;5014807;28;20405;-70
2022/01/01 02:07:50;;;;;;;71.50;32.83;;;10.50;99.90;;;;;;5014358;28;20053;-71
2022/01/01 02:10:17;;;;;;;62.47;32.53;;;10.50;99.90;;;;;;5020460;28;20037;-70
2022/01/01 02:12:47;;;;;;;66.72;33.00;;;10.50;99.90;;;;;;5034198;28;20073;-71
2022/01/01 02:15:46;;;;;;;60.78;31.13;;;10.40;99.90;;;;;;5034714;28;20037;-70
2022/01/01 02:18:12;;;;;;;66.43;33.03;;;10.40;99.90;;;;;;5032514;28;20394;-71
2022/01/01 02:20:38;;;;;;;68.60;33.00;;;10.50;99.90;;;;;;5024700;28;20179;-70
2022/01/01 02:23:05;;;;;;;62.85;31.70;;;10.50;99.90;;;;;;5016482;28;20049;-72
2022/01/01 02:25:30;;;;;;;68.22;33.53;;;10.60;99.90;;;;;;5019116;28;20135;-72
2022/01/01 02:27:56;;;;;;;71.70;33.53;;;10.60;99.90;;;;;;5041582;28;20111;-71
2022/01/01 02:30:22;;;;;;;76.90;36.33;;;10.70;99.90;;;;;;5033959;28;20451;-72
2022/01/01 02:32:48;;;;;;;69.10;33.90;;;10.70;99.90;;;;;;5033646;28;20405;-72
2022/01/01 02:35:17;;;;;;;66.80;35.35;;;10.70;99.90;;;;;;5034917;28;20064;-69
2022/01/01 02:37:43;;;;;;;72.70;37.22;;;10.80;99.90;;;;;;5034695;28;20077;-70
2022/01/01 02:40:10;;;;;;;64.35;35.88;;;10.80;99.90;;;;;;5031788;28;20442;-72
2022/01/01 02:42:38;;;;;;;75.95;40.25;;;10.80;99.90;;;;;;5034221;28;20127;-71
2022/01/01 02:45:08;;;;;;;77.25;40.10;;;10.80;99.90;;;;;;5034140;28;20052;-70
2022/01/01 02:47:34;;;;;;;71.63;40.47;;;10.80;99.90;;;;;;5028906;28;20045;-72
2022/01/01 02:50:00;;;;;;;78.00;43.00;;;10.80;99.90;;;;;;5002052;28;20047;-71
2022/01/01 02:52:25;;;;;;;83.10;42.83;;;10.90;99.90;;;;;;5030736;28;20057;-71
2022/01/01 02:54:51;;;;;;;77.28;44.05;;;10.90;99.90;;;;;;5034508;28;20493;-71
2022/01/01 02:57:17;;;;;;;73.82;41.97;;;10.90;99.90;;;;;;5030068;28;20073;-70
2022/01/01 02:59:43;;;;;;;83.97;45.95;;;10.90;99.90;;;;;;5021600;28;20045;-70
2022/01/01 03:02:08;;;;;;;81.28;45.95;;;10.90;99.90;;;;;;5032957;28;20076;-71
2022/01/01 03:04:34;;;;;;;85.90;48.35;;;10.90;99.90;;;;;;5034747;28;20045;-71
2022/01/01 03:07:00;;;;;;;86.88;49.40;;;10.90;99.90;;;;;;5034120;28;20061;-72
2022/01/01 03:09:34;;;;;;;90.50;50.45;;;10.90;99.90;;;;;;5047575;28;20060;-70
2022/01/01 03:12:07;;;;;;;89.00;52.92;;;10.80;99.90;;;;;;5023590;28;20110;-71
2022/01/01 03:14:33;;;;;;;89.05;53.70;;;10.80;99.90;;;;;;5033812;28;20091;-71
2022/01/01 03:16:59;;;;;;;88.53;53.22;;;10.80;99.90;;;;;;5031669;28;20124;-72
2022/01/01 03:19:25;;;;;;;95.00;55.55;;;10.80;99.90;;;;;;5015198;28;20470;-73
2022/01/01 03:21:52;;;;;;;99.32;57.92;;;10.70;99.90;;;;;;5014402;28;20049;-71
2022/01/01 03:24:17;;;;;;;95.40;58.00;;;10.80;99.90;;;;;;5033728;28;20094;-73
2022/01/01 03:26:44;;;;;;;101.78;56.67;;;10.70;99.90;;;;;;5034208;28;20132;-71
2022/01/01 03:29:10;;;;;;;98.30;58.78;;;10.80;99.90;;;;;;5033295;28;20049;-71
2022/01/01 03:31:35;;;;;;;99.70;58.55;;;10.70;99.90;;;;;;5033244;28;20060;-71
2022/01/01 03:34:01;;;;;;;105.93;60.55;;;10.80;99.90;;;;;;5050185;28;20485;-72
2022/01/01 03:36:27;;;;;;;103.35;60.47;;;10.70;99.90;;;;;;5034075;28;20052;-70
2022/01/01 03:38:54;;;;;;;99.80;60.25;;;10.70;99.90;;;;;;5033196;28;20492;-71
2022/01/01 03:41:20;;;;;;;105.88;63.00;;;10.70;99.90;;;;;;5033835;28;20057;-71
2022/01/01 03:43:46;;;;;;;96.20;60.08;;;10.70;99.90;;;;;;5033435;28;20041;-71
2022/01/01 03:46:11;;;;;;;103.20;58.47;;;10.70;99.90;;;;;;5037250;28;20063;-70
2022/01/01 03:48:37;;;;;;;107.88;63.00;;;10.70;99.90;;;;;;5037625;28;20049;-72
2022/01/01 03:51:03;;;;;;;111.55;61.22;;;10.70;99.90;;;;;;5036986;28;20053;-72
2022/01/01 03:53:28;;;;;;;105.93;61.53;;;10.70;99.90;;;;;;5024140;28;20045;-71
2022/01/01 03:55:54;;;;;;;108.82;61.53;;;10.70;99.90;;;;;;5018201;28;20056;-71
2022/01/01 03:58:20;;;;;;;110.55;63.40;;;10.70;99.90;;;;;;5033654;28;20386;-71
2022/01/01 04:00:45;;;;;;;97.45;60.33;;;10.70;99.90;;;;;;5024114;28;20056;-72
2022/01/01 04:03:13;;;;;;;99.93;59.88;;;10.70;99.90;;;;;;5036368;28;20077;-70
2022/01/01 04:05:42;;;;;;;97.18;59.72;;;10.70;99.90;;;;;;5036524;28;20112;-72
2022/01/01 04:08:09;;;;;;;105.00;61.17;;;10.80;99.90;;;;;;5024779;28;20053;-71
2022/01/01 04:10:35;;;;;;;101.13;59.75;;;10.70;99.90;;;;;;5018460;28;20179;-71
2022/01/01 04:13:02;;;;;;;97.63;58.65;;;10.70;99.90;;;;;;5031766;28;20506;-72
2022/01/01 04:15:29;;;;;;;103.30;60.40;;;10.70;99.90;;;;;;5036489;28;20065;-70
2022/01/01 04:18:00;;;;;;;99.43;58.10;;;10.70;99.90;;;;;;5036269;28;20049;-71
2022/01/01 04:20:26;;;;;;;98.33;58.97;;;10.70;99.90;;;;;;5035734;28;20060;-69
2022/01/01 04:22:53;;;;;;;96.22;58.83;;;10.70;99.90;;;;;;5032706;28;20299;-71
2022/01/01 04:25:20;;;;;;;102.30;59.95;;;10.70;99.90;;;;;;5023618;28;20064;-72
2022/01/01 04:27:46;;;;;;;98.28;59.03;;;10.70;99.90;;;;;;5017421;28;20060;-74
2022/01/01 04:30:12;;;;;;;97.05;58.67;;;10.80;99.90;;;;;;5040748;28;20052;-71
2022/01/01 04:32:38;;;;;;;94.90;56.88;;;10.80;99.90;;;;;;5056287;28;20135;-70
2022/01/01 04:35:04;;;;;;;103.22;58.28;;;10.80;99.90;;;;;;5049870;28;20111;-71
2022/01/01 04:37:30;;;;;;;100.68;58.58;;;10.80;99.90;;;;;;5036778;28;20048;-70
2022/01/01 04:39:59;;;;;;;97.80;58.00;;;10.80;99.90;;;;;;5036456;28;20041;-71
2022/01/01 04:42:25;;;;;;;95.38;55.13;;;10.80;99.90;;;;;;5033641;28;20054;-72
2022/01/01 04:44:51;;;;;;;94.28;53.22;;;10.80;99.90;;;;;;5033508;28;20053;-73
2022/01/01 04:47:17;;;;;;;95.00;54.90;;;10.80;99.90;;;;;;5033221;28;20052;-72
2022/01/01 04:49:43;;;;;;;93.68;54.30;;;10.80;99.90;;;;;;5033692;28;20136;-70
2022/01/01 04:52:08;;;;;;;96.00;56.17;;;10.80;99.90;;;;;;5033059;28;20136;-71
2022/01/01 04:54:38;;;;;;;94.80;53.80;;;10.80;99.90;;;;;;5035886;28;20093;-72
2022/01/01 04:57:04;;;;;;;93.25;54.15;;;10.80;99.90;;;;;;5021202;28;20092;-70
2022/01/01 04:59:30;;;;;;;94.30;54.25;;;10.80;99.90;;;;;;5016414;28;20154;-71
2022/01/01 05:01:56;;;;;;;88.22;51.60;;;10.80;99.90;;;;;;5025245;28;20070;-71
2022/01/01 05:04:21;;;;;;;94.22;52.03;;;10.90;99.90;;;;;;5027050;28;20103;-71
2022/01/01 05:06:49;;;;;;;97.45;53.45;;;10.80;99.90;;;;;;5016466;28;20462;-73
2022/01/01 05:09:16;;;;;;;89.68;50.50;;;10.80;99.90;;;;;;5023075;28;20060;-72
2022/01/01 05:11:43;;;;;;;95.18;53.03;;;10.80;99.90;;;;;;5052736;28;20504;-73
2022/01/01 05:14:08;;;;;;;94.32;53.25;;;10.90;99.90;;;;;;5029614;28;20045;-71
2022/01/01 05:16:34;;;;;;;92.75;51.72;;;10.90;99.90;;;;;;5015537;28;20370;-73
2022/01/01 05:19:00;;;;;;;96.10;52.03;;;10.90;99.90;;;;;;5017185;28;20139;-72
2022/01/01 05:21:30;;;;;;;96.07;51.20;;;11.00;99.90;;;;;;5027676;28;20110;-71
2022/01/01 05:23:55;;;;;;;89.38;49.35;;;11.00;99.90;;;;;;5035669;28;20116;-73
2022/01/01 05:26:21;;;;;;;92.32;50.92;;;11.00;99.90;;;;;;5035164;28;20461;-71
2022/01/01 05:28:49;;;;;;;82.75;46.70;;;11.00;99.90;;;;;;5043957;28;20521;-71
2022/01/01 05:31:19;;;;;;;92.82;48.90;;;11.00;99.90;;;;;;5024904;28;20107;-71
2022/01/01 05:33:49;;;;;;;87.35;47.63;;;11.10;99.90;;;;;;5034601;28;20074;-74
2022/01/01 05:36:15;;;;;;;85.38;45.65;;;11.00;99.90;;;;;;5035392;28;20048;-72
2022/01/01 05:38:42;;;;;;;86.95;42.70;;;11.00;99.90;;;;;;5034625;28;20056;-72
2022/01/01 05:41:07;;;;;;;80.47;42.42;;;11.20;99.90;;;;;;5011736;28;20474;-71
2022/01/01 05:43:34;;;;;;;83.25;41.95;;;11.00;99.90;;;;;;5030845;28;20055;-71
2022/01/01 05:46:01;;;;;;;79.03;40.95;;;11.00;99.90;;;;;;5035081;28;20059;-73
2022/01/01 05:48:27;;;;;;;71.88;36.60;;;11.00;99.90;;;;;;5034988;28;20053;-70
2022/01/01 05:50:52;;;;;;;67.72;33.97;;;11.00;99.90;;;;;;5030582;28;20505;-72
2022/01/01 05:53:19;;;;;;;62.78;32.00;;;11.00;99.90;;;;;;5033695;28;20131;-72
2022/01/01 05:55:48;;;;;;;66.50;29.95;;;11.00;99.90;;;;;;5032596;28;20050;-71
2022/01/01 05:58:14;;;;;;;68.85;32.10;;;11.00;99.90;;;;;;5014972;28;20085;-70
2022/01/01 06:00:40;;;;;;;66.60;30.85;;;11.00;99.90;;;;;;5015458;28;20111;-70
2022/01/01 06:03:07;;;;;;;70.93;31.48;;;11.00;99.90;;;;;;5018860;28;20127;-71
2022/01/01 06:05:33;;;;;;;70.38;30.27;;;11.00;99.90;;;;;;5048684;28;20482;-69
2022/01/01 06:07:59;;;;;;;68.93;28.98;;;11.00;99.90;;;;;;5016379;28;20133;-73
2022/01/01 06:10:26;;;;;;;68.90;29.77;;;11.10;99.90;;;;;;5034931;28;20393;-71
2022/01/01 06:12:56;;;;;;;59.40;27.10;;;11.00;99.90;;;;;;5035328;28;20059;-72
2022/01/01 06:15:22;;;;;;;59.80;26.73;;;11.10;99.90;;;;;;5034955;28;20114;-71
2022/01/01 06:17:48;;;;;;;58.05;25.65;;;11.00;99.90;;;;;;5018429;28;20371;-71
2022/01/01 06:20:14;;;;;;;63.05;25.08;;;11.10;99.90;;;;;;5034679;28;20124;-69
2022/01/01 06:22:40;;;;;;;56.08;24.98;;;11.10;99.90;;;;;;5033818;28;20102;-71
2022/01/01 06:25:06;;;;;;;54.38;24.55;;;11.10;99.90;;;;;;5025771;28;20123;-72
2022/01/01 06:27:33;;;;;;;61.92;24.90;;;11.10;99.90;;;;;;5035123;28;20107;-72
2022/01/01 06:29:59;;;;;;;56.55;24.50;;;11.10;99.90;;;;;;5034654;28;20056;-69
2022/01/01 06:32:25;;;;;;;64.43;25.00;;;11.10;99.90;;;;;;5018186;28;20037;-69
2022/01/01 06:34:50;;;;;;;59.03;25.15;;;11.10;99.90;;;;;;5034459;28;20041;-70
2022/01/01 06:37:16;;;;;;;55.45;25.67;;;11.10;99.90;;;;;;5034393;28;20077;-70
2022/01/01 06:39:42;;;;;;;55.60;24.10;;;11.10;99.90;;;;;;5027907;28;20049;-70
2022/01/01 06:42:12;;;;;;;61.97;24.23;;;11.10;99.90;;;;;;4999287;28;20041;-71
2022/01/01 06:44:37;;;;;;;54.17;22.70;;;11.10;99.90;;;;;;4998425;28;20041;-70
2022/01/01 06:47:03;;;;;;;55.53;23.33;;;11.10;99.90;;;;;;5031413;28;20055;-73
2022/01/01 06:49:33;;;;;;;66.25;23.77;;;11.20;99.90;;;;;;5018122;28;20555;-71
2022/01/01 06:51:58;;;;;;;56.70;23.20;;;11.20;99.90;;;;;;5034291;28;20076;-71
2022/01/01 06:54:24;;;;;;;54.95;22.95;;;11.10;99.90;;;;;;5034463;28;20068;-71
2022/01/01 06:56:49;;;;;;;56.80;23.42;;;11.20;99.90;;;;;;5048223;28;20114;-70
2022/01/01 06:59:15;;;;;;;53.10;22.60;;;11.20;99.90;;;;;;5033326;28;20061;-69
2022/01/01 07:01:41;;;;;;;54.80;23.48;;;11.20;99.90;;;;;;5032481;28;20124;-70
2022/01/01 07:04:06;;;;;;;51.03;21.52;;;11.20;99.90;;;;;;5020847;28;20114;-74
2022/01/01 07:06:33;;;;;;;48.65;20.80;;;11.20;99.90;;;;;;5014117;28;20056;-71
2022/01/01 07:08:59;;;;;;;50.50;20.88;;;11.20;99.90;;;;;;5016658;28;20048;-72
2022/01/01 07:11:25;;;;;;;62.58;22.38;;;11.20;99.90;;;;;;5023655;28;20124;-70
2022/01/01 07:13:50;;;;;;;51.95;22.08;;;11.20;99.90;;;;;;5014148;28;20041;-70
2022/01/01 07:16:20;;;;;;;52.42;22.70;;;11.30;99.90;;;;;;5044210;28;20083;-72
2022/01/01 07:18:46;;;;;;;59.83;23.30;;;11.30;99.90;;;;;;5015263;28;20045;-71
2022/01/01 07:21:11;;;;;;;52.83;22.60;;;11.30;99.90;;;;;;5018273;28;20057;-69
2022/01/01 07:23:37;;;;;;;48.35;21.48;;;11.30;99.90;;;;;;5038003;28;20056;-70
2022/01/01 07:26:02;;;;;;;52.22;22.73;;;11.30;99.90;;;;;;5031083;28;20474;-71
2022/01/01 07:28:28;;;;;;;48.97;23.50;;;11.30;99.90;;;;;;5040726;28;20112;-72
2022/01/01 07:30:54;;;;;;;48.15;21.88;;;11.40;99.90;;;;;;5037438;28;20053;-71
2022/01/01 07:33:19;;;;;;;51.00;21.02;;;11.50;99.90;;;;;;5026855;28;20060;-69
2022/01/01 07:35:45;;;;;;;48.63;22.95;;;11.40;99.90;;;;;;5021724;28;20072;-69
2022/01/01 07:38:11;;;;;;;50.80;23.08;;;11.40;99.90;;;;;;5001835;28;20164;-71
2022/01/01 07:40:38;;;;;;;50.00;22.20;;;11.40;99.90;;;;;;5036314;28;20067;-70
2022/01/01 07:43:14;;;;;;;45.05;22.42;;;11.40;99.90;;;;;;5034864;28;20044;-71
2022/01/01 07:46:07;;;;;;;42.05;21.50;;;11.40;99.90;;;;;;5026349;28;20047;-72
2022/01/01 07:48:34;;;;;;;41.88;21.65;;;11.40;99.90;;;;;;5045830;28;20057;-71
2022/01/01 07:51:00;;;;;;;46.63;21.63;;;11.40;99.90;;;;;;5018418;28;20053;-72
2022/01/01 07:53:25;;;;;;;40.25;21.60;;;11.40;99.90;;;;;;5027399;28;20412;-72
2022/01/01 07:55:51;;;;;;;44.67;21.00;;;11.40;99.90;;;;;;5025914;28;20053;-70
2022/01/01 07:58:17;;;;;;;42.65;20.80;;;11.40;99.90;;;;;;5033510;28;20515;-70
2022/01/01 08:00:42;;;;;;;50.92;22.73;;;11.40;99.90;;;;;;5034125;28;20045;-71
2022/01/01 08:03:10;;;;;;;47.03;22.65;;;11.40;99.90;;;;;;5026596;28;20501;-72
2022/01/01 08:05:36;;;;;;;40.22;20.65;;;11.40;99.90;;;;;;5034373;28;20438;-71
2022/01/01 08:08:04;;;;;;;46.75;22.08;;;11.40;99.90;;;;;;5029321;28;20064;-70
2022/01/01 08:10:31;;;;;;;42.00;21.65;;;11.40;99.90;;;;;;5025637;28;20061;-70
2022/01/01 08:12:57;;;;;;;45.45;21.17;;;11.40;99.90;;;;;;5022084;28;20909;-70
2022/01/01 08:15:23;;;;;;;43.58;21.52;;;11.50;99.90;;;;;;5001331;28;20049;-71
2022/01/01 08:17:48;;;;;;;46.30;22.45;;;11.50;99.90;;;;;;5032863;28;20094;-71
2022/01/01 08:20:14;;;;;;;45.00;22.17;;;11.50;99.90;;;;;;5035560;28;20045;-71
2022/01/01 08:22:40;;;;;;;50.65;23.98;;;11.50;99.90;;;;;;5050885;28;20041;-72
2022/01/01 08:25:06;;;;;;;45.28;22.55;;;11.50;99.90;;;;;;5017417;28;20045;-74
2022/01/01 08:27:31;;;;;;;50.83;22.98;;;11.50;99.90;;;;;;5017829;28;20466;-72
2022/01/01 08:29:57;;;;;;;43.33;22.70;;;11.50;99.90;;;;;;5032163;28;20133;-72
2022/01/01 08:32:23;;;;;;;43.10;23.63;;;11.50;99.90;;;;;;5026568;28;20138;-72
2022/01/01 08:34:50;;;;;;;40.38;23.65;;;11.50;99.90;;;;;;5017527;28;20052;-72
2022/01/01 08:37:15;;;;;;;49.78;25.55;;;11.50;99.90;;;;;;5017726;28;20397;-72
2022/01/01 08:39:41;;;;;;;52.58;30.15;;;11.60;99.90;;;;;;5017401;28;20041;-71
2022/01/01 08:42:09;;;;;;;49.05;27.17;;;11.60;99.90;;;;;;5016901;28;20401;-72
2022/01/01 08:44:35;;;;;;;44.90;25.88;;;11.60;99.90;;;;;;5017549;28;20037;-72
2022/01/01 08:47:00;;;;;;;49.33;26.25;;;11.60;99.90;;;;;;5033746;28;20507;-71
2022/01/01 08:49:26;;;;;;;47.53;25.65;;;11.60;99.90;;;;;;5020270;28;20051;-72
2022/01/01 08:51:55;;;;;;;47.05;26.75;;;11.70;99.90;;;;;;5036695;28;20508;-71
2022/01/01 08:54:24;;;;;;;51.38;26.90;;;11.70;99.90;;;;;;5036972;28;20132;-74
2022/01/01 08:56:49;;;;;;;52.13;28.25;;;11.60;99.90;;;;;;5036660;28;20389;-72
2022/01/01 08:59:16;;;;;;;50.38;27.58;;;11.70;99.90;;;;;;5023719;28;20041;-73
2022/01/01 09:01:41;;;;;;;52.25;27.33;;;11.70;99.90;;;;;;5016272;28;20543;-71
2022/01/01 09:04:07;;;;;;;53.25;27.42;;;11.70;99.90;;;;;;5016580;28;20045;-73
2022/01/01 09:06:33;;;;;;;53.72;27.40;;;11.70;99.90;;;;;;5017026;28;20041;-71
2022/01/01 09:08:59;;;;;;;50.00;26.05;;;11.70;99.90;;;;;;5016920;28;20140;-72
2022/01/01 09:11:25;;;;;;;50.72;26.92;;;11.70;99.90;;;;;;5016834;28;20151;-72
2022/01/01 09:13:50;;;;;;;47.00;26.42;;;11.70;99.90;;;;;;5027984;28;20387;-72
2022/01/01 09:16:19;;;;;;;49.83;27.60;;;11.80;99.90;;;;;;5019270;28;20049;-71
2022/01/01 09:18:47;;;;;;;48.33;28.17;;;11.80;99.90;;;;;;5019833;28;20041;-73
2022/01/01 09:21:14;;;;;;;58.33;30.08;;;11.80;99.90;;;;;;5036384;28;20053;-70
2022/01/01 09:23:40;;;;;;;55.38;31.65;;;11.90;99.90;;;;;;5036064;28;20053;-72
2022/01/01 09:26:06;;;;;;;49.92;27.20;;;11.90;99.90;;;;;;5053912;28;20503;-73
2022/01/01 09:28:33;;;;;;;44.63;23.90;;;11.90;99.90;;;;;;5028269;28;20061;-73
2022/01/01 09:30:59;;;;;;;45.20;24.70;;;12.00;99.90;;;;;;5035737;28;20075;-71
2022/01/01 09:33:29;;;;;;;38.72;22.77;;;12.00;99.90;;;;;;5036155;28;20056;-72
2022/01/01 09:35:55;;;;;;;44.83;23.25;;;12.10;99.90;;;;;;5036700;28;20053;-72
2022/01/01 09:38:20;;;;;;;37.47;23.45;;;12.00;99.90;;;;;;5036384;28;20080;-72
2022/01/01 09:40:48;;;;;;;42.80;23.50;;;12.10;99.90;;;;;;5035754;28;20450;-71
2022/01/01 09:43:14;;;;;;;43.13;24.30;;;12.10;99.90;;;;;;5035518;28;20037;-70
2022/01/01 09:45:41;;;;;;;38.53;22.48;;;12.10;99.90;;;;;;5016660;28;20048;-73
2022/01/01 09:48:07;;;;;;;35.13;21.13;;;12.20;99.90;;;;;;5016374;28;20099;-71
2022/01/01 09:50:33;;;;;;;42.78;22.35;;;12.10;99.90;;;;;;5016005;28;20054;-71
2022/01/01 09:52:59;;;;;;;40.08;20.70;;;12.20;99.90;;;;;;5016694;28;20057;-70
2022/01/01 09:55:25;;;;;;;34.30;21.23;;;12.20;99.90;;;;;;5016007;28;20070;-72
2022/01/01 09:57:50;;;;;;;31.48;20.70;;;12.20;99.90;;;;;;5001187;28;20049;-71
2022/01/01 10:00:16;;;;;;;31.40;19.17;;;12.20;99.90;;;;;;5035766;28;20087;-72
2022/01/01 10:02:41;;;;;;;30.40;17.67;;;12.30;99.90;;;;;;5035063;28;20386;-71
2022/01/01 10:05:07;;;;;;;38.05;18.48;;;12.20;99.90;;;;;;5035684;28;20045;-71
2022/01/01 10:07:33;;;;;;;30.83;17.02;;;12.30;99.90;;;;;;5035397;28;20107;-72
2022/01/01 10:10:23;;;;;;;31.05;16.27;;;12.30;99.90;;;;;;5018925;28;20055;-71
2022/01/01 10:12:49;;;;;;;24.40;15.73;;;12.30;99.90;;;;;;5034328;28;20052;-71
2022/01/01 10:15:16;;;;;;;25.95;15.13;;;12.30;99.90;;;;;;5018741;28;20132;-72
2022/01/01 10:17:42;;;;;;;31.40;16.52;;;12.30;99.90;;;;;;5034741;28;20068;-72
2022/01/01 10:20:09;;;;;;;19.58;13.50;;;12.30;99.90;;;;;;5035043;28;20048;-71
2022/01/01 10:22:35;;;;;;;23.90;13.43;;;12.40;99.90;;;;;;5025072;28;20128;-70
2022/01/01 10:27:59;;;;;;;19.35;11.98;;;12.40;99.90;;;;;;5034828;28;20119;-73
2022/01/01 10:30:40;;;;;;;20.83;12.18;;;12.40;99.90;;;;;;5030875;28;20511;-73
2022/01/01 10:33:09;;;;;;;21.48;11.27;;;12.30;99.90;;;;;;5013692;28;20476;-72
2022/01/01 10:35:44;;;;;;;24.85;12.50;;;12.30;99.90;;;;;;5035679;28;20445;-72
2022/01/01 10:38:22;;;;;;;21.48;11.55;;;12.30;99.90;;;;;;5034863;28;20060;-71
2022/01/01 10:40:53;;;;;;;22.55;12.70;;;12.40;99.90;;;;;;5034642;28;20057;-71
2022/01/01 10:43:20;;;;;;;17.67;10.68;;;12.40;99.90;;;;;;5031568;28;20044;-72
2022/01/01 10:45:47;;;;;;;16.00;10.00;;;12.30;99.90;;;;;;5023925;28;20056;-72
2022/01/01 10:48:38;;;;;;;16.95;9.15;;;12.40;99.90;;;;;;5001526;28;20045;-72
2022/01/01 10:51:09;;;;;;;20.27;10.32;;;12.40;99.90;;;;;;5030299;28;20045;-70
2022/01/01 10:53:36;;;;;;;16.65;9.32;;;12.40;99.90;;;;;;5033691;28;20107;-72
2022/01/01 10:56:04;;;;;;;20.30;9.93;;;12.40;99.90;;;;;;5021916;28;20045;-71
2022/01/01 10:58:35;;;;;;;13.32;8.30;;;12.50;99.90;;;;;;5008406;28;20045;-72
2022/01/01 11:01:05;;;;;;;17.38;8.90;;;12.50;99.90;;;;;;5048610;28;20060;-72
2022/01/01 11:03:42;;;;;;;17.73;8.80;;;12.50;99.90;;;;;;5027638;28;20525;-72
2022/01/01 11:06:10;;;;;;;17.63;9.98;;;12.50;99.90;;;;;;5026064;28;20342;-71
2022/01/01 11:08:37;;;;;;;20.48;10.45;;;12.50;99.90;;;;;;5024984;28;20042;-71
2022/01/01 11:11:06;;;;;;;17.48;11.45;;;12.50;99.90;;;;;;5033469;28;20049;-72
2022/01/01 11:13:33;;;;;;;19.80;10.77;;;12.50;99.90;;;;;;5033803;28;20059;-74
2022/01/01 11:15:59;;;;;;;18.15;10.30;;;12.50;99.90;;;;;;5023758;28;20049;-72
2022/01/01 11:18:25;;;;;;;18.80;10.48;;;12.50;99.90;;;;;;5047027;28;20053;-70
2022/01/01 11:20:52;;;;;;;17.25;10.07;;;12.60;99.90;;;;;;5033051;28;20077;-72
2022/01/01 11:23:20;;;;;;;17.02;8.90;;;12.60;99.90;;;;;;5034315;28;20075;-71
2022/01/01 11:25:46;;;;;;;16.98;9.13;;;12.60;99.90;;;;;;5027288;28;20080;-71
2022/01/01 11:28:17;;;;;;;18.63;9.30;;;12.60;99.90;;;;;;5026203;28;20059;-71
2022/01/01 11:30:57;;;;;;;15.77;7.65;;;12.60;99.90;;;;;;5049348;28;20048;-70
2022/01/01 11:33:37;;;;;;;17.98;8.43;;;12.60;99.90;;;;;;5033403;28;20053;-71
2022/01/01 11:36:04;;;;;;;17.88;8.30;;;12.60;99.90;;;;;;5029702;28;20439;-72
2022/01/01 11:38:35;;;;;;;14.05;7.55;;;12.60;99.90;;;;;;5032631;28;20053;-72
2022/01/01 11:41:05;;;;;;;24.58;16.95;;;12.60;99.90;;;;;;5014280;28;20127;-70
2022/01/01 11:43:55;;;;;;;20.85;12.95;;;12.60;99.90;;;;;;5014867;28;20446;-70
2022/01/01 11:46:57;;;;;;;15.73;8.20;;;12.60;99.90;;;;;;5031771;28;20385;-72
2022/01/01 11:49:27;;;;;;;16.35;7.78;;;12.60;99.90;;;;;;5021821;28;20049;-72
2022/01/01 11:55:13;;;;;;;13.68;7.22;;;12.60;99.90;;;;;;5034278;28;20128;-71
2022/01/01 11:57:59;;;;;;;12.65;6.63;;;12.60;99.90;;;;;;5022359;28;20442;-71
2022/01/01 12:00:26;;;;;;;17.23;7.18;;;12.70;99.90;;;;;;5014428;28;20044;-70
2022/01/01 12:03:12;;;;;;;12.60;7.15;;;12.60;99.90;;;;;;5017825;28;20059;-70
2022/01/01 12:05:59;;;;;;;14.00;7.13;;;12.60;99.90;;;;;;5029270;28;20044;-72
2022/01/01 12:08:44;;;;;;;15.25;7.53;;;12.60;99.90;;;;;;5028429;28;20075;-71
2022/01/01 12:11:30;;;;;;;15.05;7.07;;;12.70;99.90;;;;;;5037637;28;20496;-71
2022/01/01 12:14:01;;;;;;;14.95;6.68;;;12.70;99.90;;;;;;5037762;28;20049;-70
2022/01/01 12:16:28;;;;;;;13.00;7.30;;;12.70;99.90;;;;;;5030719;28;20053;-71
2022/01/01 12:19:04;;;;;;;12.68;6.40;;;12.70;99.90;;;;;;5018035;28;20065;-72
2022/01/01 12:21:39;;;;;;;18.15;8.68;;;12.70;99.90;;;;;;5035433;28;20072;-71
2022/01/01 12:24:15;;;;;;;18.65;10.55;;;12.70;99.90;;;;;;5017958;28;20049;-71
2022/01/01 12:27:14;;;;;;;13.20;8.07;;;12.70;99.90;;;;;;5032311;28;20056;-71
2022/01/01 12:29:43;;;;;;;14.02;7.90;;;12.70;99.90;;;;;;5025810;28;20493;-71
2022/01/01 12:32:57;;;;;;;14.65;8.07;;;12.70;99.90;;;;;;5053608;28;20048;-71
2022/01/01 12:35:44;;;;;;;11.50;6.85;;;12.70;99.90;;;;;;5017384;28;20088;-71
2022/01/01 12:39:01;;;;;;;12.10;7.38;;;12.70;99.90;;;;;;5017324;28;20053;-72